Soul City, North Carolina
Current Conditions -  °F | °C
As of 10:35 AM on Friday 24 Oct 2014 (Local Time) from KHNZ Reporting Station
Clear Clear  
Wind Chill: 58°   Ceiling: Unl
Heat Index: 58°   Visibility: 10mi
Dew Point: 42°   Wind: 5mph
Humidity: 54%   Direction: 340°NNW
Pressure: 30.05"   Gusts: NA
Location:  36.4679°N, 78.2938°W
Report Text: KHNZ 241435Z AUTO 34004KT 10SM CLR 14/05 A3005 RMK AO2 T01440053
Loading
Personal Weather Stations






























Interactive Weather Map New forecast layout! Learn more

10-Day Weather Forecast

Advertisements
Track Severe Weather on mobile